QTR70 OEDF-OMDB
Flight info
| Callsign | QTR70 |
|---|---|
| Flight time | N/A |
| Altitude | 17000 |
| Route | LADNA1E LADNA DCT SOGAT DCT TOBLI DCT SOLOB DCT OBROS DCT RABLA DCT RAMKI DCT MODOG DCT ITMUB DCT ROTAG DCT ALPOB DCT PURLI DCT SISOB DCT ULIVA DCT RUDUK DCT SENPA DCT TUDIS DCT ULDOT DCT |
| Aircraft | A332/H-SDE3GHIJ2J3J5M1RVWXY/LB2D1 |
Departure
| Time | 2026-05-06 15:07 |
|---|---|
| Airport | King Fahd International Airport (OEDF) |
Arrival
| Time | N/A |
|---|---|
| Airport | Dubai International Airport (OMDB) |
| Time | Latitude | Longitude | Altitude | Speed | Heading |
|---|---|---|---|---|---|
| 2026-05-06 14:55 | 26.46566 | 49.79576 | 82 ft | 0 kts | 85° |
| 2026-05-06 15:05 | 26.46564 | 49.79553 | 82 ft | 0 kts | 264° |
| 2026-05-06 15:05 | 26.45426 | 49.79326 | 83 ft | 0 kts | 265° |
| 2026-05-06 15:06 | 26.45426 | 49.79296 | 85 ft | 10 kts | 272° |
| 2026-05-06 15:06 | 26.45456 | 49.79203 | 84 ft | 15 kts | 314° |
| 2026-05-06 15:06 | 26.45559 | 49.79157 | 86 ft | 19 kts | 344° |
| 2026-05-06 15:06 | 26.45887 | 49.79061 | 85 ft | 95 kts | 345° |
| 2026-05-06 15:07 | 26.46829 | 49.78724 | 257 ft | 182 kts | 342° |
| 2026-05-06 15:07 | 26.48119 | 49.78159 | 1305 ft | 211 kts | 345° |
| 2026-05-06 15:07 | 26.49584 | 49.77685 | 2562 ft | 225 kts | 345° |
| 2026-05-06 15:07 | 26.51197 | 49.77228 | 3120 ft | 256 kts | 346° |
| 2026-05-06 15:08 | 26.52986 | 49.76802 | 3730 ft | 277 kts | 352° |
| 2026-05-06 15:08 | 26.54962 | 49.76980 | 4425 ft | 293 kts | 17° |
| 2026-05-06 15:08 | 26.56696 | 49.78146 | 5368 ft | 293 kts | 48° |
| 2026-05-06 15:08 | 26.57669 | 49.80100 | 6356 ft | 289 kts | 75° |
| 2026-05-06 15:09 | 26.58118 | 49.82303 | 7242 ft | 293 kts | 83° |
| 2026-05-06 15:09 | 26.58468 | 49.84566 | 8186 ft | 297 kts | 83° |
| 2026-05-06 15:09 | 26.58816 | 49.86842 | 9268 ft | 299 kts | 83° |
| 2026-05-06 15:09 | 26.59181 | 49.89162 | 10194 ft | 307 kts | 81° |
| 2026-05-06 15:10 | 26.59557 | 49.91503 | 11156 ft | 311 kts | 81° |
| 2026-05-06 15:10 | 26.59944 | 49.93883 | 12278 ft | 310 kts | 81° |
| 2026-05-06 15:10 | 26.60337 | 49.96281 | 13249 ft | 317 kts | 81° |
| 2026-05-06 15:10 | 26.60739 | 49.98733 | 14124 ft | 323 kts | 80° |
| 2026-05-06 15:11 | 26.61147 | 50.01217 | 15030 ft | 327 kts | 79° |
| 2026-05-06 15:11 | 26.61562 | 50.03743 | 15871 ft | 333 kts | 79° |
| 2026-05-06 15:11 | 26.61983 | 50.06313 | 16708 ft | 339 kts | 79° |
| 2026-05-06 15:11 | 26.62414 | 50.08940 | 17395 ft | 351 kts | 79° |